createdAt,value
2018-06-28T00:00:51.971Z,53.60
2018-06-28T00:01:51.984Z,55.23
2018-06-28T00:02:51.959Z,54.93
2018-06-28T00:03:51.944Z,55.16
2018-06-28T00:04:51.932Z,54.55
2018-06-28T00:05:51.919Z,55.66
2018-06-28T00:06:51.938Z,56.40
2018-06-28T00:07:51.900Z,55.99
2018-06-28T00:08:51.944Z,56.20
2018-06-28T00:09:51.880Z,56.49
2018-06-28T00:10:51.868Z,56.02
2018-06-28T00:11:51.856Z,55.59
2018-06-28T00:12:51.889Z,56.02
2018-06-28T00:13:51.835Z,55.49
2018-06-28T00:14:51.825Z,54.99
2018-06-28T00:15:51.816Z,54.81
2018-06-28T00:16:51.804Z,55.49
2018-06-28T00:17:51.817Z,55.71
2018-06-28T00:18:51.782Z,56.82
2018-06-28T00:19:51.772Z,57.23
2018-06-28T00:20:51.762Z,57.12
2018-06-28T00:21:51.755Z,57.83
2018-06-28T00:22:51.776Z,58.06
2018-06-28T00:23:51.730Z,58.87
2018-06-28T00:24:51.719Z,58.87
2018-06-28T00:25:51.715Z,59.30
2018-06-28T00:26:51.713Z,59.60
2018-06-28T00:27:51.715Z,60.00
2018-06-28T00:28:51.677Z,60.74
2018-06-28T00:29:51.667Z,60.64
2018-06-28T00:30:51.656Z,60.33
2018-06-28T00:31:51.646Z,60.33
2018-06-28T00:32:51.681Z,61.37
2018-06-28T00:33:51.625Z,61.68
2018-06-28T00:34:51.615Z,61.57
2018-06-28T00:35:51.625Z,61.71
2018-06-28T00:36:51.597Z,62.71
2018-06-28T00:37:51.586Z,62.82
2018-06-28T00:38:51.599Z,62.82
2018-06-28T00:39:51.562Z,62.44
2018-06-28T00:40:51.551Z,62.34
2018-06-28T00:41:51.541Z,62.31
2018-06-28T00:42:51.530Z,63.45
2018-06-28T00:43:51.553Z,62.34
2018-06-28T00:44:51.508Z,62.34
2018-06-28T00:45:51.526Z,62.95
2018-06-28T00:46:51.487Z,62.47
2018-06-28T00:47:51.476Z,63.28
2018-06-28T00:48:51.467Z,63.68
2018-06-28T00:49:51.479Z,63.89
2018-06-28T00:50:51.454Z,64.49
2018-06-28T00:51:51.433Z,63.78
2018-06-28T00:52:51.423Z,64.29
2018-06-28T00:53:51.412Z,64.19
2018-06-28T00:54:51.428Z,63.58
2018-06-28T00:55:51.391Z,64.19
2018-06-28T00:56:51.381Z,64.19
2018-06-28T00:57:51.369Z,64.83
2018-06-28T00:58:51.374Z,64.73
2018-06-28T00:59:51.372Z,64.93
2018-06-28T01:00:51.342Z,65.23
2018-06-28T01:01:51.327Z,65.64
2018-06-28T01:02:51.316Z,65.94
2018-06-28T01:03:51.305Z,65.94
2018-06-28T01:04:51.317Z,66.24
2018-06-28T01:05:51.287Z,66.04
2018-06-28T01:06:51.272Z,66.17
2018-06-28T01:07:51.263Z,66.98
2018-06-28T01:08:51.271Z,67.29
2018-06-28T01:09:51.267Z,67.59
2018-06-28T01:10:51.228Z,67.62
2018-06-28T01:11:51.218Z,66.71
2018-06-28T01:12:51.210Z,67.22
2018-06-28T01:13:51.196Z,67.42
2018-06-28T01:14:51.209Z,67.42
2018-06-28T01:15:51.176Z,67.93
2018-06-28T01:16:51.167Z,67.62
2018-06-28T01:17:51.154Z,67.62
2018-06-28T01:18:51.142Z,67.82
2018-06-28T01:19:51.156Z,67.42
2018-06-28T01:20:51.127Z,67.42
2018-06-28T01:21:51.128Z,67.72
2018-06-28T01:22:51.099Z,67.76
2018-06-28T01:23:51.089Z,68.43
2018-06-28T01:24:51.105Z,68.26
2018-06-28T01:25:51.069Z,68.56
2018-06-28T01:26:51.056Z,68.66
2018-06-28T01:27:51.049Z,68.66
2018-06-28T01:28:51.035Z,69.07
2018-06-28T01:29:51.023Z,68.97
2018-06-28T01:30:51.036Z,68.66
2018-06-28T01:31:51.016Z,69.61
2018-06-28T01:32:50.991Z,69.92
2018-06-28T01:33:50.980Z,70.32
2018-06-28T01:34:50.969Z,70.42
2018-06-28T01:35:50.987Z,70.52
2018-06-28T01:36:50.949Z,70.72
2018-06-28T01:37:50.938Z,70.72
2018-06-28T01:38:50.926Z,71.94
2018-06-28T01:39:50.916Z,70.56
2018-06-28T01:40:50.909Z,72.17
2018-06-28T01:41:50.937Z,71.77
2018-06-28T01:42:50.884Z,72.28
2018-06-28T01:43:50.878Z,71.47
2018-06-28T01:44:50.868Z,71.97
2018-06-28T01:45:50.853Z,71.97
2018-06-28T01:46:50.928Z,71.97
2018-06-28T01:47:50.863Z,71.06
2018-06-28T01:48:50.820Z,71.47
2018-06-28T01:49:50.807Z,71.97
2018-06-28T01:50:50.797Z,71.67
2018-06-28T01:51:50.815Z,71.97
2018-06-28T01:52:50.775Z,72.38
2018-06-28T01:53:50.765Z,72.68
2018-06-28T01:54:50.765Z,72.41
2018-06-28T01:55:50.742Z,72.38
2018-06-28T01:56:50.760Z,71.40
2018-06-28T01:57:50.723Z,71.30
2018-06-28T01:58:50.710Z,71.70
2018-06-28T01:59:50.699Z,71.97
2018-06-28T02:00:50.690Z,71.77
2018-06-28T02:01:50.701Z,72.11
2018-06-28T02:02:50.669Z,72.72
2018-06-28T02:03:50.656Z,72.82
2018-06-28T02:04:50.645Z,72.52
2018-06-28T02:05:50.634Z,72.85
2018-06-28T02:06:50.647Z,73.12
2018-06-28T02:07:50.616Z,73.36
2018-06-28T02:08:50.604Z,72.85
2018-06-28T02:09:50.594Z,73.36
2018-06-28T02:10:50.581Z,74.17
2018-06-28T02:11:50.593Z,73.57
2018-06-28T02:12:50.559Z,73.77
2018-06-28T02:13:50.548Z,73.26
2018-06-28T02:14:50.539Z,73.77
2018-06-28T02:15:50.526Z,73.06
2018-06-28T02:16:50.544Z,73.77
2018-06-28T02:17:50.514Z,73.36
2018-06-28T02:18:50.496Z,73.77
2018-06-28T02:19:50.484Z,74.10
2018-06-28T02:20:50.474Z,74.17
2018-06-28T02:21:50.486Z,74.68
2018-06-28T02:22:50.452Z,74.31
2018-06-28T02:23:50.441Z,74.82
2018-06-28T02:24:50.431Z,74.27
2018-06-28T02:25:50.420Z,74.31
2018-06-28T02:26:50.439Z,74.82
2018-06-28T02:27:50.420Z,74.48
2018-06-28T02:28:50.388Z,74.41
2018-06-28T02:29:50.377Z,75.43
2018-06-28T02:30:50.369Z,75.63
2018-06-28T02:31:50.355Z,75.46
2018-06-28T02:32:50.369Z,74.95
2018-06-28T02:33:50.335Z,75.05
2018-06-28T02:34:50.323Z,75.46
2018-06-28T02:35:50.327Z,76.07
2018-06-28T02:36:50.302Z,75.67
2018-06-28T02:37:50.316Z,76.07
2018-06-28T02:38:50.285Z,75.76
2018-06-28T02:39:50.270Z,76.17
2018-06-28T02:40:50.263Z,76.37
2018-06-28T02:41:50.273Z,76.98
2018-06-28T02:42:50.239Z,76.88
2018-06-28T02:43:50.228Z,76.88
2018-06-28T02:44:50.216Z,76.88
2018-06-28T02:45:50.207Z,76.58
2018-06-28T02:46:50.220Z,76.58
2018-06-28T02:47:50.188Z,76.48
2018-06-28T02:48:50.173Z,77.53
2018-06-28T02:49:50.163Z,77.33
2018-06-28T02:50:50.168Z,77.22
2018-06-28T02:51:50.167Z,77.63
2018-06-28T02:52:50.130Z,77.53
2018-06-28T02:53:50.122Z,76.61
2018-06-28T02:54:50.110Z,76.92
2018-06-28T02:55:50.098Z,77.22
2018-06-28T02:56:50.113Z,77.22
2018-06-28T02:57:50.083Z,78.14
2018-06-28T02:58:50.067Z,77.63
2018-06-28T02:59:50.058Z,78.75
2018-06-28T03:00:50.054Z,78.55
2018-06-28T03:01:50.060Z,78.75
2018-06-28T03:02:50.024Z,78.64
2018-06-28T03:03:50.033Z,77.53
2018-06-28T03:04:50.003Z,78.55
2018-06-28T03:05:49.993Z,78.55
2018-06-28T03:06:50.010Z,78.48
2018-06-28T03:07:49.970Z,78.68
2018-06-28T03:08:49.966Z,78.17
2018-06-28T03:09:49.949Z,78.68
2018-06-28T03:10:49.938Z,79.60
2018-06-28T03:11:49.927Z,79.09
2018-06-28T03:12:49.941Z,79.39
2018-06-28T03:13:49.928Z,79.80
2018-06-28T03:14:49.894Z,79.80
2018-06-28T03:15:49.884Z,79.94
2018-06-28T03:16:49.875Z,79.80
2018-06-28T03:17:49.890Z,80.24
2018-06-28T03:18:49.850Z,79.29
2018-06-28T03:19:49.842Z,79.70
2018-06-28T03:20:49.832Z,80.00
2018-06-28T03:21:49.818Z,79.80
2018-06-28T03:22:49.807Z,80.11
2018-06-28T03:23:49.840Z,79.19
2018-06-28T03:24:49.784Z,80.00
2018-06-28T03:25:49.774Z,80.24
2018-06-28T03:26:49.784Z,80.76
2018-06-28T03:27:49.755Z,80.24
2018-06-28T03:28:49.764Z,80.04
2018-06-28T03:29:49.731Z,80.15
2018-06-28T03:30:49.777Z,80.35
2018-06-28T03:31:49.712Z,80.55
2018-06-28T03:32:49.702Z,80.55
2018-06-28T03:33:49.712Z,80.24
2018-06-28T03:34:49.677Z,80.85
2018-06-28T03:35:49.667Z,81.06
2018-06-28T03:36:49.671Z,80.24
2018-06-28T03:37:49.718Z,80.85
2018-06-28T03:38:49.658Z,81.98
2018-06-28T03:39:49.623Z,81.98
2018-06-28T03:40:49.615Z,81.98
2018-06-28T03:41:49.601Z,81.87
2018-06-28T03:42:49.592Z,81.57
2018-06-28T03:43:49.609Z,81.26
2018-06-28T03:44:49.568Z,81.77
2018-06-28T03:45:49.584Z,80.65
2018-06-28T03:46:49.546Z,80.45
2018-06-28T03:47:49.535Z,80.96
2018-06-28T03:48:49.524Z,81.67
2018-06-28T03:49:49.539Z,81.40
2018-06-28T03:50:49.502Z,81.57
2018-06-28T03:51:49.492Z,81.30
2018-06-28T03:52:49.484Z,81.91
2018-06-28T03:53:49.470Z,81.26
2018-06-28T03:54:49.482Z,81.60
2018-06-28T03:55:49.448Z,80.85
2018-06-28T03:56:49.437Z,82.21
2018-06-28T03:57:49.432Z,81.91
2018-06-28T03:58:49.416Z,81.30
2018-06-28T03:59:49.444Z,81.57
2018-06-28T04:00:49.393Z,81.51
2018-06-28T04:01:49.385Z,81.57
2018-06-28T04:02:49.373Z,82.12
2018-06-28T04:03:49.362Z,81.77
2018-06-28T04:04:49.372Z,81.98
2018-06-28T04:05:49.339Z,81.16
2018-06-28T04:06:49.329Z,81.77
2018-06-28T04:07:49.319Z,82.62
2018-06-28T04:08:49.308Z,81.71
2018-06-28T04:09:49.331Z,81.60
2018-06-28T04:10:49.285Z,82.01
2018-06-28T04:11:49.276Z,82.42
2018-06-28T04:12:49.276Z,83.29
2018-06-28T04:13:49.254Z,83.20
2018-06-28T04:14:49.263Z,82.79
2018-06-28T04:15:49.230Z,83.40
2018-06-28T04:16:49.243Z,83.60
2018-06-28T04:17:49.210Z,83.54
2018-06-28T04:18:49.197Z,83.70
2018-06-28T04:19:49.210Z,83.20
2018-06-28T04:20:49.179Z,83.44
2018-06-28T04:21:49.166Z,83.40
2018-06-28T04:22:49.171Z,83.74
2018-06-28T04:23:49.143Z,83.54
2018-06-28T04:24:49.156Z,83.54
2018-06-28T04:25:49.121Z,83.70
2018-06-28T04:26:49.110Z,83.54
2018-06-28T04:27:49.102Z,83.03
2018-06-28T04:28:49.090Z,83.81
2018-06-28T04:29:49.106Z,83.54
2018-06-28T04:30:49.069Z,83.54
2018-06-28T04:31:49.056Z,83.81
2018-06-28T04:32:49.047Z,83.70
2018-06-28T04:33:49.040Z,81.67
2018-06-28T04:34:49.047Z,81.30
2018-06-28T04:35:49.020Z,81.87
2018-06-28T04:36:49.002Z,82.18
2018-06-28T04:37:48.992Z,82.14
2018-06-28T04:38:48.982Z,81.93
2018-06-28T04:39:48.994Z,81.73
2018-06-28T04:40:48.961Z,81.93
2018-06-28T04:41:48.948Z,81.98
2018-06-28T04:42:48.937Z,82.14
2018-06-28T04:43:48.931Z,83.06
2018-06-28T04:44:48.940Z,83.15
2018-06-28T04:45:48.920Z,83.26
2018-06-28T04:46:48.896Z,82.28
2018-06-28T04:47:48.886Z,82.89
2018-06-28T04:48:48.872Z,82.95
2018-06-28T04:49:48.902Z,83.26
2018-06-28T04:50:48.852Z,83.26
2018-06-28T04:51:48.842Z,83.67
2018-06-28T04:52:48.831Z,83.15
2018-06-28T04:53:48.819Z,83.26
2018-06-28T04:54:48.836Z,83.15
2018-06-28T04:55:48.797Z,82.95
2018-06-28T04:56:48.787Z,83.67
2018-06-28T04:57:48.777Z,83.67
2018-06-28T04:58:48.771Z,83.46
2018-06-28T04:59:48.785Z,83.87
2018-06-28T05:00:48.745Z,83.97
2018-06-28T05:01:48.740Z,83.46
2018-06-28T05:02:48.722Z,84.28
2018-06-28T05:03:48.712Z,83.53
2018-06-28T05:04:48.724Z,83.42
2018-06-28T05:05:48.690Z,83.87
2018-06-28T05:06:48.680Z,83.42
2018-06-28T05:07:48.670Z,83.42
2018-06-28T05:08:48.664Z,83.42
2018-06-28T05:09:48.672Z,83.62
2018-06-28T05:10:48.637Z,83.62
2018-06-28T05:11:48.630Z,83.53
2018-06-28T05:12:48.618Z,83.12
2018-06-28T05:13:48.607Z,83.53
2018-06-28T05:14:48.624Z,83.53
2018-06-28T05:15:48.605Z,83.42
2018-06-28T05:16:48.574Z,83.53
2018-06-28T05:17:48.561Z,83.53
2018-06-28T05:18:48.570Z,83.42
2018-06-28T05:19:48.564Z,83.01
2018-06-28T05:20:48.531Z,83.42
2018-06-28T05:21:48.519Z,83.28
2018-06-28T05:22:48.509Z,83.59
2018-06-28T05:23:48.496Z,83.48
2018-06-28T05:24:48.513Z,83.69
2018-06-28T05:25:48.478Z,83.38
2018-06-28T05:26:48.465Z,83.48
2018-06-28T05:27:48.458Z,83.69
2018-06-28T05:28:48.444Z,83.14
2018-06-28T05:29:48.457Z,81.72
2018-06-28T05:30:48.425Z,81.11
2018-06-28T05:31:48.435Z,82.23
2018-06-28T05:32:48.401Z,82.23
2018-06-28T05:33:48.389Z,81.78
2018-06-28T05:34:48.443Z,81.38
2018-06-28T05:35:48.369Z,81.58
2018-06-28T05:36:48.357Z,80.36
2018-06-28T05:37:48.506Z,81.48
2018-06-28T05:38:48.336Z,82.09
2018-06-28T05:39:48.353Z,80.97
2018-06-28T05:40:48.315Z,80.57
2018-06-28T05:41:48.318Z,80.36
2018-06-28T05:42:48.293Z,79.92
2018-06-28T05:43:48.283Z,80.02
2018-06-28T05:44:48.295Z,80.02
2018-06-28T05:45:48.262Z,78.97
2018-06-28T05:46:48.257Z,78.80
2018-06-28T05:47:48.240Z,79.88
2018-06-28T05:48:48.231Z,80.19
2018-06-28T05:49:48.259Z,79.27
2018-06-28T05:50:48.208Z,78.97
2018-06-28T05:51:48.197Z,79.78
2018-06-28T05:52:48.188Z,79.27
2018-06-28T05:53:48.176Z,79.58
2018-06-28T05:54:48.191Z,78.12
2018-06-28T05:55:48.155Z,77.31
2018-06-28T05:56:48.144Z,77.72
2018-06-28T05:57:48.133Z,76.20
2018-06-28T05:58:48.122Z,77.07
2018-06-28T05:59:48.136Z,77.37
2018-06-28T06:00:48.104Z,76.77
2018-06-28T06:01:48.090Z,75.04
2018-06-28T06:02:48.080Z,74.44
2018-06-28T06:03:48.070Z,73.90
2018-06-28T06:04:48.101Z,74.00
2018-06-28T06:05:48.047Z,74.10
2018-06-28T06:06:48.039Z,74.10
2018-06-28T06:07:48.027Z,74.27
2018-06-28T06:08:48.019Z,74.67
2018-06-28T06:09:48.005Z,75.07
2018-06-28T06:10:48.019Z,73.63
2018-06-28T06:11:47.985Z,73.32
2018-06-28T06:12:47.976Z,74.23
2018-06-28T06:13:47.962Z,74.43
2018-06-28T06:14:47.951Z,74.94
2018-06-28T06:15:47.972Z,74.94
2018-06-28T06:16:47.929Z,75.34
2018-06-28T06:17:47.918Z,74.43
2018-06-28T06:18:47.907Z,74.13
2018-06-28T06:19:47.897Z,73.12
2018-06-28T06:20:47.915Z,74.63
2018-06-28T06:21:47.875Z,74.30
2018-06-28T06:22:47.864Z,71.67
2018-06-28T06:23:47.853Z,72.08
2018-06-28T06:24:47.842Z,72.99
2018-06-28T06:25:47.842Z,73.69
2018-06-28T06:26:47.845Z,72.08
2018-06-28T06:27:47.810Z,74.19
2018-06-28T06:28:47.801Z,73.15
2018-06-28T06:29:47.788Z,72.55
2018-06-28T06:30:47.777Z,72.00
2018-06-28T06:31:47.790Z,70.49
2018-06-28T06:32:47.755Z,70.29
2018-06-28T06:33:47.750Z,70.15
2018-06-28T06:34:47.738Z,68.33
2018-06-28T06:35:47.723Z,68.10
2018-06-28T06:36:47.736Z,67.60
2018-06-28T06:37:47.703Z,68.81
2018-06-28T06:38:47.700Z,67.80
2018-06-28T06:39:47.680Z,67.36
2018-06-28T06:40:47.671Z,67.36
2018-06-28T06:41:47.683Z,67.57
2018-06-28T06:42:47.647Z,68.17
2018-06-28T06:43:47.636Z,68.17
2018-06-28T06:44:47.625Z,67.67
2018-06-28T06:45:47.615Z,67.36
2018-06-28T06:46:47.745Z,68.04
2018-06-28T06:47:47.594Z,67.84
2018-06-28T06:48:47.630Z,68.14
2018-06-28T06:49:47.572Z,67.30
2018-06-28T06:50:47.561Z,65.49
2018-06-28T06:51:47.575Z,66.09
2018-06-28T06:52:47.544Z,65.76
2018-06-28T06:53:47.538Z,66.06
2018-06-28T06:54:47.519Z,66.77
2018-06-28T06:55:47.509Z,67.17
2018-06-28T06:56:47.541Z,66.27
2018-06-28T06:57:47.495Z,67.37
2018-06-28T06:58:47.478Z,65.53
2018-06-28T06:59:47.489Z,65.53
2018-06-28T07:00:47.458Z,66.03
2018-06-28T07:01:47.470Z,64.92
2018-06-28T07:02:47.436Z,64.49
2018-06-28T07:03:47.425Z,62.88
2018-06-28T07:04:47.415Z,63.59
2018-06-28T07:05:47.406Z,64.09
2018-06-28T07:06:47.419Z,64.49
2018-06-28T07:07:47.383Z,63.89
2018-06-28T07:08:47.372Z,63.56
2018-06-28T07:09:47.384Z,63.25
2018-06-28T07:10:47.352Z,63.96
2018-06-28T07:11:47.366Z,64.46
2018-06-28T07:12:47.330Z,63.73
2018-06-28T07:13:47.321Z,63.96
2018-06-28T07:14:47.310Z,64.03
2018-06-28T07:15:47.304Z,63.32
2018-06-28T07:16:47.314Z,64.06
2018-06-28T07:17:47.281Z,63.02
2018-06-28T07:18:47.267Z,64.13
2018-06-28T07:19:47.257Z,63.93
2018-06-28T07:20:47.246Z,62.92
2018-06-28T07:21:47.259Z,63.32
2018-06-28T07:22:47.282Z,61.99
2018-06-28T07:23:47.214Z,61.79
2018-06-28T07:24:47.203Z,62.19
2018-06-28T07:25:47.197Z,62.69
2018-06-28T07:26:47.205Z,63.29
2018-06-28T07:27:47.253Z,63.19
2018-06-28T07:28:47.165Z,62.39
2018-06-28T07:29:47.166Z,60.65
2018-06-28T07:30:47.138Z,61.96
2018-06-28T07:31:47.152Z,60.02
2018-06-28T07:32:47.132Z,59.25
2018-06-28T07:33:47.105Z,60.93
2018-06-28T07:34:47.095Z,58.51
2018-06-28T07:35:47.090Z,59.09
2018-06-28T07:36:47.100Z,58.09
2018-06-28T07:37:47.063Z,58.99
2018-06-28T07:38:47.050Z,59.16
2018-06-28T07:39:47.044Z,59.26
2018-06-28T07:40:47.029Z,57.76
2018-06-28T07:41:47.042Z,57.33
2018-06-28T07:42:47.019Z,56.83
2018-06-28T07:43:46.997Z,56.00
2018-06-28T07:44:46.992Z,57.40
2018-06-28T07:45:46.980Z,57.00
2018-06-28T07:46:47.049Z,56.10
2018-06-28T07:47:47.090Z,56.00
2018-06-28T07:48:46.942Z,55.57
2018-06-28T07:49:47.097Z,55.57
2018-06-28T07:50:47.079Z,56.27
2018-06-28T07:51:46.932Z,56.27
2018-06-28T07:52:46.897Z,56.87
2018-06-28T07:53:46.887Z,55.55
2018-06-28T07:54:46.878Z,56.15
2018-06-28T07:55:46.983Z,56.15
2018-06-28T07:56:46.878Z,54.64
2018-06-28T07:57:46.845Z,55.15
2018-06-28T07:58:46.833Z,56.05
2018-06-28T07:59:46.822Z,56.22
2018-06-28T08:00:46.814Z,55.42
2018-06-28T08:01:46.825Z,56.22
2018-06-28T08:02:46.790Z,52.72
2018-06-28T08:03:46.783Z,53.30
2018-06-28T08:04:46.772Z,53.89
2018-06-28T08:05:46.782Z,52.80
2018-06-28T08:06:46.772Z,52.99
2018-06-28T08:07:46.737Z,52.69
2018-06-28T08:08:46.729Z,55.40
2018-06-28T08:09:46.750Z,54.67
2018-06-28T08:10:46.706Z,53.87
2018-06-28T08:11:46.719Z,52.97
2018-06-28T08:12:46.690Z,50.37
2018-06-28T08:13:46.676Z,52.57
2018-06-28T08:14:46.664Z,52.37
2018-06-28T08:15:46.655Z,52.77
2018-06-28T08:16:46.665Z,52.67
2018-06-28T08:17:46.632Z,52.84
2018-06-28T08:18:46.623Z,52.14
2018-06-28T08:19:46.613Z,51.94
2018-06-28T08:20:46.602Z,53.44
2018-06-28T08:21:46.612Z,52.34
2018-06-28T08:22:46.578Z,53.61
2018-06-28T08:23:46.570Z,49.72
2018-06-28T08:24:46.558Z,50.42
2018-06-28T08:25:46.552Z,52.52
2018-06-28T08:26:46.559Z,49.82
2018-06-28T08:27:46.525Z,49.72
2018-06-28T08:28:46.530Z,48.70
2018-06-28T08:29:46.504Z,48.70
2018-06-28T08:30:46.495Z,50.20
2018-06-28T08:31:46.509Z,50.90
2018-06-28T08:32:46.472Z,50.60
2018-06-28T08:33:46.461Z,50.30
2018-06-28T08:34:46.451Z,49.57
2018-06-28T08:35:46.466Z,49.38
2018-06-28T08:36:46.455Z,48.48
2018-06-28T08:37:46.419Z,49.77
2018-06-28T08:38:46.410Z,49.38
2018-06-28T08:39:46.397Z,48.18
2018-06-28T08:40:46.388Z,49.68
2018-06-28T08:41:46.402Z,50.05
2018-06-28T08:42:46.369Z,49.95
2018-06-28T08:43:46.355Z,48.35
2018-06-28T08:44:46.345Z,49.65
2018-06-28T08:45:46.335Z,48.16
2018-06-28T08:46:46.347Z,49.33
2018-06-28T08:47:46.313Z,49.63
2018-06-28T08:48:46.306Z,48.53
2018-06-28T08:49:46.291Z,48.73
2018-06-28T08:50:46.281Z,50.13
2018-06-28T08:51:46.313Z,48.43
2018-06-28T08:52:46.260Z,48.41
2018-06-28T08:53:46.250Z,47.41
2018-06-28T08:54:46.245Z,47.21
2018-06-28T08:55:46.228Z,47.71
2018-06-28T08:56:46.242Z,47.21
2018-06-28T08:57:46.247Z,45.92
2018-06-28T08:58:46.196Z,47.02
2018-06-28T08:59:46.186Z,47.21
2018-06-28T09:00:46.178Z,48.11
2018-06-28T09:01:46.210Z,49.80
2018-06-28T09:02:46.156Z,46.22
2018-06-28T09:03:46.143Z,48.21
2018-06-28T09:04:46.141Z,47.81
2018-06-28T09:05:46.148Z,48.28
2018-06-28T09:06:46.136Z,47.19
2018-06-28T09:07:46.105Z,47.09
2018-06-28T09:08:46.096Z,46.30
2018-06-28T09:09:46.079Z,47.39
2018-06-28T09:10:46.068Z,46.39
2018-06-28T09:11:46.082Z,46.47
2018-06-28T09:12:46.049Z,46.87
2018-06-28T09:13:46.037Z,46.97
2018-06-28T09:14:46.036Z,45.97
2018-06-28T09:15:46.015Z,45.37
2018-06-28T09:16:46.028Z,45.87
2018-06-28T09:17:45.995Z,46.57
2018-06-28T09:18:45.996Z,45.37
2018-06-28T09:19:45.975Z,45.85
2018-06-28T09:20:45.962Z,46.05
2018-06-28T09:21:45.988Z,46.42
2018-06-28T09:22:46.114Z,46.42
2018-06-28T09:23:45.930Z,44.34
2018-06-28T09:24:45.933Z,46.72
2018-06-28T09:25:45.909Z,45.90
2018-06-28T09:26:45.923Z,47.40
2018-06-28T09:27:45.888Z,43.13
2018-06-28T09:28:45.877Z,44.49
2018-06-28T09:29:45.867Z,45.39
2018-06-28T09:30:45.857Z,44.79
2018-06-28T09:31:45.870Z,43.80
2018-06-28T09:32:45.837Z,44.37
2018-06-28T09:33:45.824Z,43.48
2018-06-28T09:34:45.830Z,40.41
2018-06-28T09:35:45.817Z,41.20
2018-06-28T09:36:45.817Z,41.00
2018-06-28T09:37:45.785Z,41.30
2018-06-28T09:38:45.772Z,41.39
2018-06-28T09:39:45.764Z,41.30
2018-06-28T09:40:45.751Z,43.48
2018-06-28T09:41:45.764Z,42.09
2018-06-28T09:42:45.733Z,42.29
2018-06-28T09:43:45.720Z,41.39
2018-06-28T09:44:45.708Z,40.60
2018-06-28T09:45:45.699Z,42.79
2018-06-28T09:46:45.720Z,42.58
2018-06-28T09:47:45.677Z,40.30
2018-06-28T09:48:45.714Z,42.09
2018-06-28T09:49:45.656Z,43.18
2018-06-28T09:50:45.646Z,43.28
2018-06-28T09:51:45.694Z,42.27
2018-06-28T09:52:45.627Z,41.77
2018-06-28T09:53:45.616Z,42.25
2018-06-28T09:54:45.640Z,42.33
2018-06-28T09:55:45.594Z,41.24
2018-06-28T09:56:45.607Z,41.73
2018-06-28T09:57:45.576Z,40.23
2018-06-28T09:58:45.594Z,40.82
2018-06-28T09:59:45.555Z,39.63
2018-06-28T10:00:45.540Z,40.52
2018-06-28T10:01:45.557Z,39.23
2018-06-28T10:02:45.518Z,42.11
2018-06-28T10:03:45.508Z,38.64
2018-06-28T10:04:45.498Z,40.03
2018-06-28T10:05:45.492Z,41.31
2018-06-28T10:06:45.508Z,39.34
2018-06-28T10:07:45.484Z,38.44
2018-06-28T10:08:45.456Z,38.92
2018-06-28T10:09:45.447Z,39.12
2018-06-28T10:10:45.434Z,39.81
2018-06-28T10:11:45.447Z,41.67
2018-06-28T10:12:45.412Z,40.68
2018-06-28T10:13:45.405Z,37.62
2018-06-28T10:14:45.451Z,38.59
2018-06-28T10:15:45.383Z,39.20
2018-06-28T10:16:45.394Z,38.49
2018-06-28T10:17:45.363Z,39.40
2018-06-28T10:18:45.350Z,38.68
2018-06-28T10:19:45.347Z,37.98
2018-06-28T10:20:45.344Z,38.07
2018-06-28T10:21:45.343Z,37.85
2018-06-28T10:22:45.307Z,37.64
2018-06-28T10:23:45.300Z,37.41
2018-06-28T10:24:45.314Z,37.74
2018-06-28T10:25:45.278Z,35.23
2018-06-28T10:26:45.294Z,34.30
2018-06-28T10:27:45.255Z,31.32
2018-06-28T10:28:45.245Z,28.71
2018-06-28T10:29:45.237Z,29.16
2018-06-28T10:30:45.243Z,27.56
2018-06-28T10:31:45.243Z,26.66
2018-06-28T10:32:45.263Z,25.85
2018-06-28T10:33:45.193Z,22.90
2018-06-28T10:34:45.184Z,23.65
2018-06-28T10:35:45.174Z,22.35
2018-06-28T10:36:45.188Z,22.62
2018-06-28T10:37:45.159Z,22.12
2018-06-28T10:38:45.144Z,20.17
2018-06-28T10:39:45.134Z,20.55
2018-06-28T10:40:45.147Z,20.13
2018-06-28T10:41:45.138Z,20.21
2018-06-28T10:42:45.105Z,20.67
2018-06-28T10:43:45.103Z,19.98
2018-06-28T10:44:45.120Z,19.40
2018-06-28T10:45:45.078Z,20.34
2018-06-28T10:46:45.094Z,18.49
2018-06-28T10:47:45.062Z,18.48
2018-06-28T10:48:45.058Z,17.69
2018-06-28T10:49:45.041Z,18.07
2018-06-28T10:50:45.036Z,18.07
2018-06-28T10:51:45.055Z,18.05
2018-06-28T10:52:45.019Z,18.71
2018-06-28T10:53:45.018Z,16.60
2018-06-28T10:54:45.000Z,16.69
2018-06-28T10:55:44.992Z,17.56
2018-06-28T10:56:45.009Z,17.41
2018-06-28T10:57:44.974Z,18.80
2018-06-28T10:58:44.966Z,18.62
2018-06-28T10:59:44.958Z,18.14
2018-06-28T11:00:44.950Z,18.70
2018-06-28T11:01:45.042Z,18.30
2018-06-28T11:02:44.932Z,18.28
2018-06-28T11:03:44.940Z,18.18
2018-06-28T11:04:44.917Z,19.40
2018-06-28T11:05:44.914Z,20.13
2018-06-28T11:06:44.928Z,20.48
2018-06-28T11:07:44.892Z,20.58
2018-06-28T11:08:44.882Z,22.69
2018-06-28T11:09:44.875Z,23.62
2018-06-28T11:10:44.868Z,24.74
2018-06-28T11:11:44.879Z,26.72
2018-06-28T11:12:44.871Z,27.74
2018-06-28T11:13:44.844Z,28.41
2018-06-28T11:14:44.832Z,26.00
2018-06-28T11:15:44.824Z,25.54
2018-06-28T11:16:44.845Z,24.12
2018-06-28T11:17:44.801Z,22.23
2018-06-28T11:18:44.793Z,21.31
2018-06-28T11:19:44.783Z,20.59
2018-06-28T11:20:44.775Z,19.78
2018-06-28T11:21:44.794Z,20.53
2018-06-28T11:22:44.757Z,18.20
2018-06-28T11:23:44.760Z,18.66
2018-06-28T11:24:44.741Z,18.27
2018-06-28T11:25:44.736Z,17.49
2018-06-28T11:26:44.834Z,17.99
2018-06-28T11:27:44.716Z,17.63
2018-06-28T11:28:44.710Z,17.52
2018-06-28T11:29:44.702Z,17.50
2018-06-28T11:30:44.696Z,16.62
2018-06-28T11:31:44.708Z,18.35
2018-06-28T11:32:44.675Z,17.49
2018-06-28T11:33:44.709Z,17.24
2018-06-28T11:34:44.658Z,18.15
2018-06-28T11:35:44.652Z,20.03
2018-06-28T11:36:44.664Z,20.43
2018-06-28T11:37:44.632Z,21.34
2018-06-28T11:38:44.623Z,23.52
2018-06-28T11:39:44.614Z,23.36
2018-06-28T11:40:44.607Z,23.39
2018-06-28T11:41:44.618Z,25.50
2018-06-28T11:42:44.587Z,25.93
2018-06-28T11:43:44.591Z,27.81
2018-06-28T11:44:44.569Z,28.13
2018-06-28T11:45:44.567Z,28.00
2018-06-28T11:46:44.573Z,26.11
2018-06-28T11:47:44.544Z,27.90
2018-06-28T11:48:44.532Z,27.08
2018-06-28T11:49:44.521Z,24.95
2018-06-28T11:50:44.511Z,24.71
2018-06-28T11:51:44.524Z,23.30
2018-06-28T11:52:44.491Z,21.24
2018-06-28T11:53:44.507Z,20.43
2018-06-28T11:54:44.474Z,21.43
2018-06-28T11:55:44.464Z,23.10
2018-06-28T11:56:44.486Z,23.31
2018-06-28T11:57:44.444Z,22.56
2018-06-28T11:58:44.435Z,21.26
2018-06-28T11:59:44.428Z,21.41
2018-06-28T12:00:44.417Z,20.51
2018-06-28T12:01:44.432Z,20.56
2018-06-28T12:02:44.398Z,20.94
2018-06-28T12:03:44.389Z,20.87
2018-06-28T12:04:44.380Z,20.16
2018-06-28T12:05:44.373Z,20.60
2018-06-28T12:06:44.386Z,18.16
2018-06-28T12:07:44.359Z,18.71
2018-06-28T12:08:44.343Z,16.39
2018-06-28T12:09:44.347Z,15.61
2018-06-28T12:10:44.347Z,15.59
2018-06-28T12:11:44.342Z,16.35
2018-06-28T12:12:44.308Z,15.48
2018-06-28T12:13:44.302Z,14.43
2018-06-28T12:14:44.295Z,14.54
2018-06-28T12:15:44.295Z,15.01
2018-06-28T12:16:44.322Z,15.88
2018-06-28T12:17:44.269Z,15.97
2018-06-28T12:18:44.290Z,15.30
2018-06-28T12:19:44.270Z,16.63
2018-06-28T12:20:44.249Z,16.02
2018-06-28T12:21:44.262Z,16.50
2018-06-28T12:22:44.239Z,17.25
2018-06-28T12:23:44.227Z,14.65
2018-06-28T12:24:44.223Z,15.69
2018-06-28T12:25:44.201Z,15.44
2018-06-28T12:26:44.198Z,17.22
2018-06-28T12:27:44.220Z,17.29
2018-06-28T12:28:44.177Z,17.42
2018-06-28T12:29:44.173Z,18.63
2018-06-28T12:30:44.157Z,18.74
2018-06-28T12:31:44.149Z,18.25
2018-06-28T12:32:44.166Z,19.62
2018-06-28T12:33:44.136Z,18.13
2018-06-28T12:34:44.123Z,17.52
2018-06-28T12:35:44.117Z,17.40
2018-06-28T12:36:44.121Z,16.90
2018-06-28T12:37:44.124Z,16.64
2018-06-28T12:38:44.088Z,18.27
2018-06-28T12:39:44.079Z,17.66
2018-06-28T12:40:44.070Z,16.39
2018-06-28T12:41:44.062Z,15.14
2018-06-28T12:42:44.087Z,15.31
2018-06-28T12:43:44.047Z,14.94
2018-06-28T12:44:44.042Z,14.54
2018-06-28T12:45:44.028Z,15.69
2018-06-28T12:46:44.037Z,14.62
2018-06-28T12:47:44.034Z,14.03
2018-06-28T12:48:44.003Z,14.22
2018-06-28T12:49:44.000Z,13.84
2018-06-28T12:50:44.001Z,14.83
2018-06-28T12:51:43.979Z,15.48
2018-06-28T12:52:43.994Z,14.23